KSAT/SAT METAR and TAF weather

Enter ICAO airport designator
Station Type Date Time Source
KSAT METAR 2019/12/08 18:51 UTC NOAA

KSAT 081851Z 21008KT 10SM BKN250 20/13 A3000 RMK AO2 SLP146 T02000128


Station Type Date Time Source
KSAT Decoded METAR 2019/12/08 18:51 UTC NOAA

SAN ANTONIO INTERNATIONAL AIRPORT , TX, United States (KSAT) 29-32N 098-28W 243M
Dec 08, 2019 - 01:51 PM EST / 2019.12.08 1851 UTC
Wind: from the SSW (210 degrees) at 9 MPH (8 KT):0
Visibility: 10 mile(s):0
Sky conditions: mostly cloudy
Temperature: 68.0 F (20.0 C)
Dew Point: 55.0 F (12.8 C)
Relative Humidity: 63%
Pressure (altimeter): 30 in. Hg (1015 hPa)
ob: KSAT 081851Z 21008KT 10SM BKN250 20/13 A3000 RMK AO2 SLP146 T02000128
cycle: 19

Station Type Date Time Source
KSAT TAF 2019/12/08 18:36 UTC NOAA

TAF KSAT 081733Z 0818/0924 18010KT P6SM SCT005
FM090000 18012KT P6SM SCT025 BKN250
FM090900 20004KT 2SM BR OVC005
FM091000 20004KT 1SM BR OVC002
FM091700 20004KT 4SM BR BKN005 BKN250
FM091800 21009KT P6SM FEW020 BKN250

Example: see airport list